Flight Track Log - Related Links

Times and Time Zones

All times are in EDT time to prevent confusion due to time zone crossing. See the N960DL flight status page for this flight to view local times or setup timezone preferences in your user account.

Time Position Orientation Groundspeed Altitude Reporting Facility
EDT Latitude Longitude Course Direction KTS MPH feet Rate Location/Type
Mon 08:46:07 AM 32.8667 -97.0333 65° Northeast 167 192 2,200  Level Dallas / Fort Worth TRACON
Mon 08:47:01 AM 32.8167 -97.0333 180° South 225 259 4,200 2,474 Climbing Dallas / Fort Worth TRACON
Mon 08:48:01 AM 32.7500 -97.0333 180° South 264 304 6,900 1,665 Climbing Dallas / Fort Worth TRACON
Mon 08:49:00 AM 32.7356 -96.6434 68° East  Level FlightAware Approximate
Mon 08:50:00 AM 32.7846 -96.5035 65° Northeast  Level FlightAware Approximate
Mon 08:50:30 AM 32.6983 -96.8283 107° East 309 356 10,000  Level Fort Worth Center
Mon 08:51:00 AM 32.8376 -96.3656 65° Northeast  Level FlightAware Approximate
Mon 08:51:30 AM 32.7375 -96.6972 70° East 351 404 12,300  Level Fort Worth Center
Mon 08:52:30 AM 32.7764 -96.5881 67° East 393 452 15,000 2,500 Climbing Fort Worth Center
Mon 08:53:30 AM 32.8256 -96.4469 67° East 407 468 17,300 2,050 Climbing Fort Worth Center
Mon 08:54:30 AM 32.8619 -96.3203 71° East 432 497 19,100 1,800 Climbing Fort Worth Center
Mon 08:55:30 AM 32.8689 -96.1469 87° East 463 533 20,900 1,850 Climbing Fort Worth Center
Mon 08:56:30 AM 32.8714 -96.0011 89° East 480 552 22,800 1,700 Climbing Fort Worth Center
Mon 08:57:30 AM 32.8753 -95.8131 89° East 501 577 24,300 1,700 Climbing Fort Worth Center
Mon 08:58:30 AM 32.8756 -95.6597 90° East 510 587 26,200 2,000 Climbing Fort Worth Center
Mon 08:59:30 AM 32.8814 -95.4964 88° East 510 587 28,300 1,700 Climbing Fort Worth Center
Mon 09:00:30 AM 32.8872 -95.3306 88° East 510 587 29,600 1,450 Climbing Fort Worth Center
Mon 09:01:30 AM 32.9092 -95.1517 82° East 500 575 31,200 1,650 Climbing Fort Worth Center
Mon 09:02:30 AM 32.9333 -94.9928 80° East 494 568 32,900 900 Climbing Fort Worth Center
Mon 09:03:30 AM 32.9553 -94.8386 80° East 481 554 33,000 50 Climbing Fort Worth Center
Mon 09:04:30 AM 32.9792 -94.6794 80° East 481 554 33,000  Level Fort Worth Center
Mon 09:05:30 AM 33.0028 -94.5228 80° East 481 554 33,000  Level Fort Worth Center
Mon 09:06:30 AM 33.0261 -94.3633 80° East 486 559 33,000  Level Fort Worth Center
Mon 09:07:30 AM 33.0514 -94.2064 79° East 486 559 33,000  Level Fort Worth Center
Mon 09:08:30 AM 33.0722 -94.0469 81° East 486 559 33,000  Level Fort Worth Center
Mon 09:09:30 AM 33.0969 -93.8850 80° East 486 559 33,000  Level Fort Worth Center
Mon 09:10:30 AM 33.1181 -93.7403 80° East 486 559 33,000  Level Fort Worth Center
Mon 09:11:30 AM 33.1422 -93.5756 80° East 486 559 33,000  Level Fort Worth Center
Mon 09:12:30 AM 33.1642 -93.4133 81° East 492 566 33,000  Level Fort Worth Center
Mon 09:13:30 AM 33.1903 -93.2508 79° East 492 566 33,000  Level Fort Worth Center
Mon 09:14:30 AM 33.2139 -93.0858 80° East 492 566 33,000 400 Level Fort Worth Center
Mon 09:15:30 AM 33.2394 -92.9206 79° East 492 566 33,800 650 Climbing Fort Worth Center
Mon 09:16:30 AM 33.2564 -92.7558 83° East 497 572 34,300 550 Climbing Fort Worth Center
Mon 09:17:30 AM 33.2292 -92.5836 101° East 508 585 34,900 350 Climbing Fort Worth Center
Mon 09:18:30 AM 33.1931 -92.4117 104° East 514 592 35,000 79 Climbing Fort Worth Center
Mon 09:18:46 AM 33.1800 -92.3528 105° East 515 593 35,000  Level Memphis Center
Mon 09:19:46 AM 33.1489 -92.2058 104° East 503 579 35,000  Level Memphis Center
Mon 09:20:46 AM 33.1117 -92.0364 105° East 514 592 35,000  Level Memphis Center
Mon 09:21:46 AM 33.0661 -91.8494 106° East 519 597 35,000  Level Memphis Center
Mon 09:22:46 AM 33.0303 -91.6831 104° East 519 597 35,000  Level Memphis Center
Mon 09:23:46 AM 32.9944 -91.5164 104° East 514 592 35,000  Level Memphis Center
Mon 09:24:46 AM 32.9603 -91.3500 104° East 514 592 35,000  Level Memphis Center
Mon 09:25:46 AM 32.9219 -91.1814 105° East 519 597 35,000  Level Memphis Center
Mon 09:26:46 AM 32.8853 -91.0153 105° East 514 592 35,000  Level Memphis Center
Mon 09:27:46 AM 32.8506 -90.8469 104° East 514 592 35,000  Level Memphis Center
Mon 09:28:46 AM 32.8114 -90.6811 106° East 514 592 35,000  Level Memphis Center
Mon 09:29:46 AM 32.7761 -90.5178 104° East 514 592 35,000  Level Memphis Center
Mon 09:30:46 AM 32.7386 -90.3547 105° East 514 592 35,000  Level Memphis Center
Mon 09:31:46 AM 32.7053 -90.2042 105° East 514 592 35,000  Level Memphis Center
Mon 09:32:46 AM 32.6672 -90.0414 105° East 514 592 35,000  Level Memphis Center
Mon 09:33:46 AM 32.6292 -89.8786 105° East 514 592 35,000  Level Memphis Center
Mon 09:34:46 AM 32.5931 -89.7161 105° East 514 592 35,000  Level Memphis Center
Mon 09:35:46 AM 32.5544 -89.5564 106° East 514 592 35,000  Level Memphis Center
Mon 09:36:46 AM 32.5178 -89.3964 105° East 514 592 35,000  Level Memphis Center
Mon 09:37:46 AM 32.4789 -89.2344 106° East 508 585 35,000  Level Memphis Center
Mon 09:38:46 AM 32.4419 -89.0747 105° East 508 585 35,000  Level Memphis Center
Mon 09:39:46 AM 32.4003 -88.9031 106° East 497 572 35,000  Level Memphis Center
Mon 09:41:53 AM 32.4031 -88.6022 89° East 482 555 35,000  Level Atlanta Center
Mon 09:42:53 AM 32.4219 -88.4286 83° East 477 549 35,000  Level Atlanta Center
Mon 09:43:53 AM 32.4422 -88.2694 81° East 484 557 35,000  Level Atlanta Center
Mon 09:44:53 AM 32.4600 -88.1103 82° East 484 557 35,000 -250 Level Atlanta Center
Mon 09:45:53 AM 32.4783 -87.9292 83° East 492 566 34,500 -1,400 Descending Atlanta Center
Mon 09:46:53 AM 32.5003 -87.7650 81° East 497 572 32,200 -1,750 Descending Atlanta Center
Mon 09:47:53 AM 32.5364 -87.6014 75° East 502 578 31,000 -1,200 Descending Atlanta Center
Mon 09:48:53 AM 32.5742 -87.4428 74° East 507 583 29,800 -1,100 Descending Atlanta Center
Mon 09:49:53 AM 32.6078 -87.2789 76° East 507 583 28,800 -800 Descending Atlanta Center
Mon 09:50:53 AM 32.6453 -87.1175 75° East 507 583 28,200 -700 Descending Atlanta Center
Mon 09:51:53 AM 32.6806 -86.9583 75° East 507 583 27,400 -900 Descending Atlanta Center
Mon 09:52:53 AM 32.7114 -86.8014 77° East 493 567 26,400 -950 Descending Atlanta Center
Mon 09:53:53 AM 32.7461 -86.6467 75° East 485 558 25,500 -850 Descending Atlanta Center
Mon 09:54:53 AM 32.7839 -86.5244 70° East 485 558 24,700 -750 Descending Atlanta Center
Mon 09:55:53 AM 32.8314 -86.3428 73° East 472 543 24,000 -350 Descending Atlanta Center
Mon 09:56:53 AM 32.8692 -86.2103 71° East 477 549 24,000  Level Atlanta Center
Mon 09:57:53 AM 32.9117 -86.0553 72° East 483 556 24,000  Level Atlanta Center
Mon 09:58:53 AM 32.9494 -85.9003 74° East 483 556 24,000 -300 Level Atlanta Center
Mon 09:59:53 AM 32.9911 -85.7550 77° East 476 548 23,400 -1,400 Descending Atlanta Center
Mon 10:00:00 AM 32.9805 -85.7410 77° East  Level FlightAware Approximate
Mon 10:00:53 AM 33.0267 -85.6122 73° East 465 535 21,200  Level Atlanta Center
Mon 10:01:53 AM 33.0636 -85.4714 73° East 447 514 18,600 -2,400 Descending Atlanta Center
Mon 10:02:53 AM 33.1006 -85.3408 71° East 423 487 16,400 -2,300 Descending Atlanta Center
Mon 10:03:53 AM 33.1333 -85.2122 73° East 412 474 14,000 -2,050 Descending Atlanta Center
Mon 10:04:53 AM 33.1678 -85.0911 71° East 392 451 12,300 -1,100 Descending Atlanta Center
Mon 10:05:53 AM 33.2144 -84.9872 62° Northeast 356 410 11,800 -1,050 Descending Atlanta Center
Mon 10:06:53 AM 33.2714 -84.9108 48° Northeast 313 360 10,200 -1,350 Descending Atlanta Center
Mon 10:07:53 AM 33.3261 -84.8419 46° Northeast 294 338 9,100 -1,400 Descending Atlanta Center
Mon 10:08:53 AM 33.3994 -84.8175 16° North 269 310 7,400 -1,829 Descending Atlanta Center
Mon 10:09:15 AM 33.4333 -84.8167 North 279 321 6,600 -1,024 Descending Atlanta TRACON
Mon 10:10:15 AM 33.5000 -84.8000 12° North 286 329 6,000 -800 Descending Atlanta TRACON
Mon 10:11:15 AM 33.5833 -84.7833 North 281 323 5,000 -750 Descending Atlanta TRACON
Mon 10:12:15 AM 33.6333 -84.7667 16° North 217 250 4,500 -450 Descending Atlanta TRACON
Mon 10:13:15 AM 33.6500 -84.7167 68° East 150 173 4,100 -263 Descending Atlanta TRACON
Mon 10:14:09 AM 33.6500 -84.6667 90° East 145 167 4,000 -105 Descending Atlanta TRACON
Mon 10:15:09 AM 33.6500 -84.6167 90° East 142 163 3,900 -100 Descending Atlanta TRACON

Login

Don't have an account? Register now (free) for customized features, flight alerts, and more!